<?xml version="1.0" encoding="UTF-8"?>
<gpx version="1.1" creator="Garmin Connect"
  xsi:schemaLocation="http://www.topografix.com/GPX/1/1 http://www.topografix.com/GPX/1/1/gpx.xsd http://www.garmin.com/xmlschemas/GpxExtensions/v3 http://www.garmin.com/xmlschemas/GpxExtensionsv3.xsd http://www.garmin.com/xmlschemas/TrackPointExtension/v1 http://www.garmin.com/xmlschemas/TrackPointExtensionv1.xsd"
  xmlns="http://www.topografix.com/GPX/1/1"
  xmlns:gpxtpx="http://www.garmin.com/xmlschemas/TrackPointExtension/v1"
  xmlns:gpxx="http://www.garmin.com/xmlschemas/GpxExtensions/v3" xmlns:xsi="http://www.w3.org/2001/XMLSchema-instance">
  <metadata>
    <link href="connect.garmin.com">
      <text>Garmin Connect</text>
    </link>
    <time>2014-03-31T11:05:02.000Z</time>
  </metadata>
  <trk>
    <name>Untitled</name>
    <trkseg>
      <trkpt lon="-0.6842782907187939" lat="38.279842492192984">
        <ele>106.4000015258789</ele>
        <time>2014-03-31T11:05:02.000Z</time>
      </trkpt>
      <trkpt lon="-0.6843105610460043" lat="38.280020356178284">
        <ele>104.0</ele>
        <time>2014-03-31T11:05:08.000Z</time>
      </trkpt>
      <trkpt lon="-0.6842774525284767" lat="38.280143486335874">
        <ele>102.5999984741211</ele>
        <time>2014-03-31T11:05:13.000Z</time>
      </trkpt>
      <trkpt lon="-0.6841691583395004" lat="38.28020425513387">
        <ele>100.19999694824219</ele>
        <time>2014-03-31T11:05:17.000Z</time>
      </trkpt>
      <trkpt lon="-0.6842267420142889" lat="38.28029385767877">
        <ele>99.5999984741211</ele>
        <time>2014-03-31T11:05:21.000Z</time>
      </trkpt>
      <trkpt lon="-0.6842827331274748" lat="38.28038454987109">
        <ele>98.5999984741211</ele>
        <time>2014-03-31T11:05:25.000Z</time>
      </trkpt>
      <trkpt lon="-0.6842602696269751" lat="38.28041195869446">
        <ele>98.5999984741211</ele>
        <time>2014-03-31T11:05:26.000Z</time>
      </trkpt>
      <trkpt lon="-0.6840114947408438" lat="38.280650759115815">
        <ele>98.19999694824219</ele>
        <time>2014-03-31T11:05:34.000Z</time>
      </trkpt>
      <trkpt lon="-0.6838643923401833" lat="38.28076777048409">
        <ele>99.19999694824219</ele>
        <time>2014-03-31T11:05:40.000Z</time>
      </trkpt>
      <trkpt lon="-0.6836867798119783" lat="38.280919063836336">
        <ele>100.19999694824219</ele>
        <time>2014-03-31T11:05:48.000Z</time>
      </trkpt>
      <trkpt lon="-0.6834403518587351" lat="38.28114604577422">
        <ele>100.5999984741211</ele>
        <time>2014-03-31T11:05:58.000Z</time>
      </trkpt>
      <trkpt lon="-0.6831522658467293" lat="38.281419379636645">
        <ele>101.5999984741211</ele>
        <time>2014-03-31T11:06:08.000Z</time>
      </trkpt>
      <trkpt lon="-0.6830165628343821" lat="38.28153437934816">
        <ele>102.5999984741211</ele>
        <time>2014-03-31T11:06:14.000Z</time>
      </trkpt>
      <trkpt lon="-0.6828871462494135" lat="38.281589951366186">
        <ele>103.4000015258789</ele>
        <time>2014-03-31T11:06:20.000Z</time>
      </trkpt>
      <trkpt lon="-0.6828668620437384" lat="38.281607050448656">
        <ele>103.4000015258789</ele>
        <time>2014-03-31T11:06:21.000Z</time>
      </trkpt>
      <trkpt lon="-0.682798633351922" lat="38.28181006014347">
        <ele>103.4000015258789</ele>
        <time>2014-03-31T11:06:29.000Z</time>
      </trkpt>
      <trkpt lon="-0.6827482581138611" lat="38.28192355111241">
        <ele>103.4000015258789</ele>
        <time>2014-03-31T11:06:34.000Z</time>
      </trkpt>
      <trkpt lon="-0.6827270518988371" lat="38.28200678341091">
        <ele>103.4000015258789</ele>
        <time>2014-03-31T11:06:42.000Z</time>
      </trkpt>
      <trkpt lon="-0.6827221903949976" lat="38.28203385695815">
        <ele>105.0</ele>
        <time>2014-03-31T11:06:47.000Z</time>
      </trkpt>
      <trkpt lon="-0.6827068515121937" lat="38.282066378742456">
        <ele>105.0</ele>
        <time>2014-03-31T11:06:50.000Z</time>
      </trkpt>
      <trkpt lon="-0.6826212722808123" lat="38.282102169469">
        <ele>105.80000305175781</ele>
        <time>2014-03-31T11:06:54.000Z</time>
      </trkpt>
      <trkpt lon="-0.682424632832408" lat="38.28200485557318">
        <ele>106.80000305175781</ele>
        <time>2014-03-31T11:06:59.000Z</time>
      </trkpt>
      <trkpt lon="-0.6822789553552866" lat="38.28201709315181">
        <ele>106.4000015258789</ele>
        <time>2014-03-31T11:07:02.000Z</time>
      </trkpt>
      <trkpt lon="-0.6822587549686432" lat="38.28203385695815">
        <ele>105.4000015258789</ele>
        <time>2014-03-31T11:07:04.000Z</time>
      </trkpt>
      <trkpt lon="-0.6821928732097149" lat="38.28209236264229">
        <ele>102.0</ele>
        <time>2014-03-31T11:07:08.000Z</time>
      </trkpt>
      <trkpt lon="-0.6818972434848547" lat="38.28225765377283">
        <ele>98.19999694824219</ele>
        <time>2014-03-31T11:07:17.000Z</time>
      </trkpt>
      <trkpt lon="-0.6816344708204269" lat="38.28236217610538">
        <ele>98.19999694824219</ele>
        <time>2014-03-31T11:07:22.000Z</time>
      </trkpt>
      <trkpt lon="-0.6815667450428009" lat="38.28237055800855">
        <ele>98.19999694824219</ele>
        <time>2014-03-31T11:07:23.000Z</time>
      </trkpt>
      <trkpt lon="-0.6810494977980852" lat="38.28234256245196">
        <ele>99.5999984741211</ele>
        <time>2014-03-31T11:07:30.000Z</time>
      </trkpt>
      <trkpt lon="-0.6805112957954407" lat="38.28227525576949">
        <ele>102.0</ele>
        <time>2014-03-31T11:07:38.000Z</time>
      </trkpt>
      <trkpt lon="-0.6801069527864456" lat="38.28224156051874">
        <ele>105.0</ele>
        <time>2014-03-31T11:07:45.000Z</time>
      </trkpt>
      <trkpt lon="-0.6797432620078325" lat="38.28222127631307">
        <ele>106.80000305175781</ele>
        <time>2014-03-31T11:07:51.000Z</time>
      </trkpt>
      <trkpt lon="-0.6791283655911684" lat="38.282200153917074">
        <ele>108.80000305175781</ele>
        <time>2014-03-31T11:08:00.000Z</time>
      </trkpt>
      <trkpt lon="-0.6786346714943647" lat="38.282200656831264">
        <ele>110.5999984741211</ele>
        <time>2014-03-31T11:08:08.000Z</time>
      </trkpt>
      <trkpt lon="-0.678122453391552" lat="38.2822229526937">
        <ele>113.0</ele>
        <time>2014-03-31T11:08:17.000Z</time>
      </trkpt>
      <trkpt lon="-0.6776316929608583" lat="38.282260755077004">
        <ele>114.5999984741211</ele>
        <time>2014-03-31T11:08:25.000Z</time>
      </trkpt>
      <trkpt lon="-0.6769256852567196" lat="38.28231875784695">
        <ele>115.0</ele>
        <time>2014-03-31T11:08:37.000Z</time>
      </trkpt>
      <trkpt lon="-0.6763653550297022" lat="38.28237474896014">
        <ele>115.4000015258789</ele>
        <time>2014-03-31T11:08:47.000Z</time>
      </trkpt>
      <trkpt lon="-0.6758137419819832" lat="38.282463094219565">
        <ele>116.0</ele>
        <time>2014-03-31T11:08:57.000Z</time>
      </trkpt>
      <trkpt lon="-0.6753241550177336" lat="38.282578345388174">
        <ele>116.0</ele>
        <time>2014-03-31T11:09:06.000Z</time>
      </trkpt>
      <trkpt lon="-0.6750424392521381" lat="38.28266333788633">
        <ele>115.4000015258789</ele>
        <time>2014-03-31T11:09:11.000Z</time>
      </trkpt>
      <trkpt lon="-0.6745958514511585" lat="38.28281756490469">
        <ele>115.0</ele>
        <time>2014-03-31T11:09:19.000Z</time>
      </trkpt>
      <trkpt lon="-0.6741967890411615" lat="38.282984951511025">
        <ele>114.5999984741211</ele>
        <time>2014-03-31T11:09:26.000Z</time>
      </trkpt>
      <trkpt lon="-0.6737607624381781" lat="38.28320489265025">
        <ele>114.0</ele>
        <time>2014-03-31T11:09:35.000Z</time>
      </trkpt>
      <trkpt lon="-0.6736666336655617" lat="38.28324378468096">
        <ele>114.0</ele>
        <time>2014-03-31T11:09:37.000Z</time>
      </trkpt>
      <trkpt lon="-0.673407968133688" lat="38.28323825262487">
        <ele>114.0</ele>
        <time>2014-03-31T11:09:42.000Z</time>
      </trkpt>
      <trkpt lon="-0.6733551621437073" lat="38.28322693705559">
        <ele>114.5999984741211</ele>
        <time>2014-03-31T11:09:43.000Z</time>
      </trkpt>
      <trkpt lon="-0.6730122584849596" lat="38.283243868499994">
        <ele>115.0</ele>
        <time>2014-03-31T11:09:50.000Z</time>
      </trkpt>
      <trkpt lon="-0.6728064827620983" lat="38.28337445855141">
        <ele>114.5999984741211</ele>
        <time>2014-03-31T11:09:55.000Z</time>
      </trkpt>
      <trkpt lon="-0.6727014575153589" lat="38.28353203833103">
        <ele>114.5999984741211</ele>
        <time>2014-03-31T11:09:59.000Z</time>
      </trkpt>
      <trkpt lon="-0.6726614758372307" lat="38.28367084264755">
        <ele>114.0</ele>
        <time>2014-03-31T11:10:02.000Z</time>
      </trkpt>
      <trkpt lon="-0.6724636629223824" lat="38.283863961696625">
        <ele>112.5999984741211</ele>
        <time>2014-03-31T11:10:07.000Z</time>
      </trkpt>
      <trkpt lon="-0.6719654425978661" lat="38.284121956676245">
        <ele>113.0</ele>
        <time>2014-03-31T11:10:16.000Z</time>
      </trkpt>
      <trkpt lon="-0.6716670468449593" lat="38.28427894972265">
        <ele>112.5999984741211</ele>
        <time>2014-03-31T11:10:22.000Z</time>
      </trkpt>
      <trkpt lon="-0.67152488976717" lat="38.28436276875436">
        <ele>112.5999984741211</ele>
        <time>2014-03-31T11:10:26.000Z</time>
      </trkpt>
      <trkpt lon="-0.6713034398853779" lat="38.284500651061535">
        <ele>112.5999984741211</ele>
        <time>2014-03-31T11:10:32.000Z</time>
      </trkpt>
      <trkpt lon="-0.67094586789608" lat="38.284682454541326">
        <ele>112.5999984741211</ele>
        <time>2014-03-31T11:10:40.000Z</time>
      </trkpt>
      <trkpt lon="-0.6705775670707226" lat="38.28484799712896">
        <ele>113.0</ele>
        <time>2014-03-31T11:10:46.000Z</time>
      </trkpt>
      <trkpt lon="-0.6700824480503798" lat="38.285098783671856">
        <ele>113.5999984741211</ele>
        <time>2014-03-31T11:10:55.000Z</time>
      </trkpt>
      <trkpt lon="-0.669561680406332" lat="38.28536876477301">
        <ele>114.0</ele>
        <time>2014-03-31T11:11:05.000Z</time>
      </trkpt>
      <trkpt lon="-0.6690334528684616" lat="38.28563455492258">
        <ele>114.0</ele>
        <time>2014-03-31T11:11:15.000Z</time>
      </trkpt>
      <trkpt lon="-0.6684997770935297" lat="38.285844856873155">
        <ele>114.5999984741211</ele>
        <time>2014-03-31T11:11:24.000Z</time>
      </trkpt>
      <trkpt lon="-0.6681559514254332" lat="38.28594686463475">
        <ele>115.0</ele>
        <time>2014-03-31T11:11:30.000Z</time>
      </trkpt>
      <trkpt lon="-0.6677570566534996" lat="38.28603127039969">
        <ele>115.0</ele>
        <time>2014-03-31T11:11:38.000Z</time>
      </trkpt>
      <trkpt lon="-0.6673901807516813" lat="38.286088686436415">
        <ele>116.0</ele>
        <time>2014-03-31T11:11:44.000Z</time>
      </trkpt>
      <trkpt lon="-0.6667658966034651" lat="38.28618415631354">
        <ele>117.4000015258789</ele>
        <time>2014-03-31T11:11:54.000Z</time>
      </trkpt>
      <trkpt lon="-0.6663040537387133" lat="38.286259258165956">
        <ele>117.80000305175781</ele>
        <time>2014-03-31T11:12:02.000Z</time>
      </trkpt>
      <trkpt lon="-0.6547240354120731" lat="38.287922060117126">
        <ele>102.0</ele>
        <time>2014-03-31T11:17:44.000Z</time>
      </trkpt>
      <trkpt lon="-0.6547202635556459" lat="38.28792164102197">
        <ele>101.5999984741211</ele>
        <time>2014-03-31T11:17:45.000Z</time>
      </trkpt>
      <trkpt lon="-0.6547078583389521" lat="38.28791937790811">
        <ele>112.5999984741211</ele>
        <time>2014-03-31T11:20:09.000Z</time>
      </trkpt>
      <trkpt lon="-0.6547074392437935" lat="38.28791946172714">
        <ele>112.5999984741211</ele>
        <time>2014-03-31T11:20:10.000Z</time>
      </trkpt>
      <trkpt lon="-0.6547036673873663" lat="38.28792616724968">
        <ele>113.0</ele>
        <time>2014-03-31T11:20:11.000Z</time>
      </trkpt>
      <trkpt lon="-0.6546797789633274" lat="38.28795365989208">
        <ele>113.0</ele>
        <time>2014-03-31T11:20:13.000Z</time>
      </trkpt>
      <trkpt lon="-0.6546643562614918" lat="38.288049548864365">
        <ele>114.0</ele>
        <time>2014-03-31T11:20:17.000Z</time>
      </trkpt>
      <trkpt lon="-0.6547342613339424" lat="38.28825213946402">
        <ele>112.5999984741211</ele>
        <time>2014-03-31T11:20:22.000Z</time>
      </trkpt>
      <trkpt lon="-0.6548254564404488" lat="38.28837116248906">
        <ele>111.19999694824219</ele>
        <time>2014-03-31T11:20:25.000Z</time>
      </trkpt>
      <trkpt lon="-0.654886644333601" lat="38.28854198567569">
        <ele>108.19999694824219</ele>
        <time>2014-03-31T11:20:29.000Z</time>
      </trkpt>
      <trkpt lon="-0.6549711339175701" lat="38.28865413554013">
        <ele>103.0</ele>
        <time>2014-03-31T11:20:35.000Z</time>
      </trkpt>
      <trkpt lon="-0.6549133826047182" lat="38.28877215273678">
        <ele>100.19999694824219</ele>
        <time>2014-03-31T11:20:39.000Z</time>
      </trkpt>
      <trkpt lon="-0.6549026537686586" lat="38.28891129232943">
        <ele>99.19999694824219</ele>
        <time>2014-03-31T11:20:42.000Z</time>
      </trkpt>
      <trkpt lon="-0.6549631711095572" lat="38.289075661450624">
        <ele>97.80000305175781</ele>
        <time>2014-03-31T11:20:47.000Z</time>
      </trkpt>
      <trkpt lon="-0.6550498399883509" lat="38.28927665948868">
        <ele>97.80000305175781</ele>
        <time>2014-03-31T11:20:55.000Z</time>
      </trkpt>
      <trkpt lon="-0.655122259631753" lat="38.28950213268399">
        <ele>98.5999984741211</ele>
        <time>2014-03-31T11:21:02.000Z</time>
      </trkpt>
      <trkpt lon="-0.6551950983703136" lat="38.28967203386128">
        <ele>98.5999984741211</ele>
        <time>2014-03-31T11:21:06.000Z</time>
      </trkpt>
      <trkpt lon="-0.655298950150609" lat="38.28999649733305">
        <ele>100.5999984741211</ele>
        <time>2014-03-31T11:21:12.000Z</time>
      </trkpt>
      <trkpt lon="-0.6553340703248978" lat="38.29024569131434">
        <ele>102.5999984741211</ele>
        <time>2014-03-31T11:21:17.000Z</time>
      </trkpt>
      <trkpt lon="-0.6553356628865004" lat="38.29029749147594">
        <ele>103.0</ele>
        <time>2014-03-31T11:21:18.000Z</time>
      </trkpt>
      <trkpt lon="-0.6552957650274038" lat="38.29056755639613">
        <ele>103.0</ele>
        <time>2014-03-31T11:21:23.000Z</time>
      </trkpt>
      <trkpt lon="-0.6551837828010321" lat="38.29087835736573">
        <ele>103.0</ele>
        <time>2014-03-31T11:21:28.000Z</time>
      </trkpt>
      <trkpt lon="-0.6551410350948572" lat="38.291125539690256">
        <ele>103.4000015258789</ele>
        <time>2014-03-31T11:21:32.000Z</time>
      </trkpt>
      <trkpt lon="-0.6550547853112221" lat="38.29148814082146">
        <ele>103.0</ele>
        <time>2014-03-31T11:21:38.000Z</time>
      </trkpt>
      <trkpt lon="-0.6550476606935263" lat="38.29161294735968">
        <ele>103.0</ele>
        <time>2014-03-31T11:21:40.000Z</time>
      </trkpt>
      <trkpt lon="-0.6549533642828465" lat="38.29188846051693">
        <ele>101.5999984741211</ele>
        <time>2014-03-31T11:21:45.000Z</time>
      </trkpt>
      <trkpt lon="-0.6549343373626471" lat="38.29193699173629">
        <ele>101.5999984741211</ele>
        <time>2014-03-31T11:21:46.000Z</time>
      </trkpt>
      <trkpt lon="-0.6549314875155687" lat="38.29221677966416">
        <ele>103.4000015258789</ele>
        <time>2014-03-31T11:21:52.000Z</time>
      </trkpt>
      <trkpt lon="-0.6549250334501266" lat="38.29226363450289">
        <ele>103.4000015258789</ele>
        <time>2014-03-31T11:21:53.000Z</time>
      </trkpt>
      <trkpt lon="-0.6550389435142279" lat="38.292459435760975">
        <ele>102.5999984741211</ele>
        <time>2014-03-31T11:21:57.000Z</time>
      </trkpt>
      <trkpt lon="-0.6553807575255632" lat="38.292821450158954">
        <ele>102.5999984741211</ele>
        <time>2014-03-31T11:22:03.000Z</time>
      </trkpt>
      <trkpt lon="-0.6554414425045252" lat="38.29287593252957">
        <ele>102.5999984741211</ele>
        <time>2014-03-31T11:22:04.000Z</time>
      </trkpt>
      <trkpt lon="-0.6556002795696259" lat="38.29307626001537">
        <ele>103.0</ele>
        <time>2014-03-31T11:22:08.000Z</time>
      </trkpt>
      <trkpt lon="-0.6558318715542555" lat="38.29344338737428">
        <ele>102.0</ele>
        <time>2014-03-31T11:22:14.000Z</time>
      </trkpt>
      <trkpt lon="-0.6558225676417351" lat="38.29371244646609">
        <ele>102.0</ele>
        <time>2014-03-31T11:22:18.000Z</time>
      </trkpt>
      <trkpt lon="-0.6555905565619469" lat="38.29415425658226">
        <ele>101.0</ele>
        <time>2014-03-31T11:22:25.000Z</time>
      </trkpt>
      <trkpt lon="-0.6554437894374132" lat="38.29435357823968">
        <ele>100.19999694824219</ele>
        <time>2014-03-31T11:22:28.000Z</time>
      </trkpt>
      <trkpt lon="-0.6551564577966928" lat="38.294668570160866">
        <ele>100.19999694824219</ele>
        <time>2014-03-31T11:22:33.000Z</time>
      </trkpt>
      <trkpt lon="-0.6551248580217361" lat="38.29474409110844">
        <ele>100.19999694824219</ele>
        <time>2014-03-31T11:22:34.000Z</time>
      </trkpt>
      <trkpt lon="-0.6550803501158953" lat="38.29490024596453">
        <ele>100.19999694824219</ele>
        <time>2014-03-31T11:22:36.000Z</time>
      </trkpt>
      <trkpt lon="-0.6550056673586369" lat="38.29538715071976">
        <ele>101.0</ele>
        <time>2014-03-31T11:22:42.000Z</time>
      </trkpt>
      <trkpt lon="-0.6550309807062149" lat="38.295615976676345">
        <ele>101.0</ele>
        <time>2014-03-31T11:22:45.000Z</time>
      </trkpt>
      <trkpt lon="-0.6550093553960323" lat="38.295859387144446">
        <ele>102.0</ele>
        <time>2014-03-31T11:22:48.000Z</time>
      </trkpt>
      <trkpt lon="-0.6549568846821785" lat="38.296011267229915">
        <ele>102.5999984741211</ele>
        <time>2014-03-31T11:22:50.000Z</time>
      </trkpt>
      <trkpt lon="-0.6549777556210756" lat="38.29634754918516">
        <ele>103.0</ele>
        <time>2014-03-31T11:22:55.000Z</time>
      </trkpt>
      <trkpt lon="-0.6551108602434397" lat="38.296751054003835">
        <ele>104.4000015258789</ele>
        <time>2014-03-31T11:23:01.000Z</time>
      </trkpt>
      <trkpt lon="-0.6551362574100494" lat="38.29681039787829">
        <ele>104.4000015258789</ele>
        <time>2014-03-31T11:23:02.000Z</time>
      </trkpt>
      <trkpt lon="-0.6551746465265751" lat="38.29699823632836">
        <ele>105.0</ele>
        <time>2014-03-31T11:23:06.000Z</time>
      </trkpt>
      <trkpt lon="-0.6551164761185646" lat="38.29725413583219">
        <ele>105.4000015258789</ele>
        <time>2014-03-31T11:23:11.000Z</time>
      </trkpt>
      <trkpt lon="-0.6549707986414433" lat="38.297450356185436">
        <ele>105.0</ele>
        <time>2014-03-31T11:23:15.000Z</time>
      </trkpt>
      <trkpt lon="-0.6548806931823492" lat="38.297518249601126">
        <ele>104.4000015258789</ele>
        <time>2014-03-31T11:23:17.000Z</time>
      </trkpt>
      <trkpt lon="-0.6545854825526476" lat="38.29768345691264">
        <ele>105.0</ele>
        <time>2014-03-31T11:23:24.000Z</time>
      </trkpt>
      <trkpt lon="-0.6544126477092505" lat="38.29775336198509">
        <ele>106.4000015258789</ele>
        <time>2014-03-31T11:23:33.000Z</time>
      </trkpt>
      <trkpt lon="-0.6543668825179338" lat="38.297777669504285">
        <ele>106.80000305175781</ele>
        <time>2014-03-31T11:23:37.000Z</time>
      </trkpt>
      <trkpt lon="-0.6543219555169344" lat="38.297793343663216">
        <ele>107.4000015258789</ele>
        <time>2014-03-31T11:23:40.000Z</time>
      </trkpt>
      <trkpt lon="-0.6540932971984148" lat="38.29810246825218">
        <ele>105.0</ele>
        <time>2014-03-31T11:55:58.000Z</time>
      </trkpt>
      <trkpt lon="-0.6540910340845585" lat="38.29810129478574">
        <ele>105.0</ele>
        <time>2014-03-31T11:55:59.000Z</time>
      </trkpt>
      <trkpt lon="-0.6541130784898996" lat="38.29806927591562">
        <ele>104.0</ele>
        <time>2014-03-31T11:56:02.000Z</time>
      </trkpt>
      <trkpt lon="-0.6542094703763723" lat="38.29789895564318">
        <ele>99.5999984741211</ele>
        <time>2014-03-31T11:56:11.000Z</time>
      </trkpt>
      <trkpt lon="-0.654348861426115" lat="38.297765934839845">
        <ele>98.5999984741211</ele>
        <time>2014-03-31T11:56:18.000Z</time>
      </trkpt>
      <trkpt lon="-0.6545348558574915" lat="38.29767918214202">
        <ele>97.19999694824219</ele>
        <time>2014-03-31T11:56:24.000Z</time>
      </trkpt>
      <trkpt lon="-0.6547689624130726" lat="38.29754934646189">
        <ele>96.80000305175781</ele>
        <time>2014-03-31T11:56:31.000Z</time>
      </trkpt>
      <trkpt lon="-0.6550018955022097" lat="38.29737684689462">
        <ele>97.19999694824219</ele>
        <time>2014-03-31T11:56:40.000Z</time>
      </trkpt>
      <trkpt lon="-0.6551032327115536" lat="38.29722764901817">
        <ele>97.80000305175781</ele>
        <time>2014-03-31T11:56:46.000Z</time>
      </trkpt>
      <trkpt lon="-0.6551707908511162" lat="38.29707426019013">
        <ele>99.19999694824219</ele>
        <time>2014-03-31T11:56:53.000Z</time>
      </trkpt>
      <trkpt lon="-0.6551657617092133" lat="38.29693654552102">
        <ele>99.19999694824219</ele>
        <time>2014-03-31T11:56:59.000Z</time>
      </trkpt>
      <trkpt lon="-0.6551365926861763" lat="38.29680503346026">
        <ele>98.5999984741211</ele>
        <time>2014-03-31T11:57:04.000Z</time>
      </trkpt>
      <trkpt lon="-0.6550238560885191" lat="38.296543853357434">
        <ele>98.19999694824219</ele>
        <time>2014-03-31T11:57:11.000Z</time>
      </trkpt>
      <trkpt lon="-0.6549631711095572" lat="38.29633606597781">
        <ele>98.19999694824219</ele>
        <time>2014-03-31T11:57:15.000Z</time>
      </trkpt>
      <trkpt lon="-0.6549145560711622" lat="38.29609215259552">
        <ele>99.19999694824219</ele>
        <time>2014-03-31T11:57:19.000Z</time>
      </trkpt>
      <trkpt lon="-0.6549223512411118" lat="38.295933650806546">
        <ele>99.19999694824219</ele>
        <time>2014-03-31T11:57:22.000Z</time>
      </trkpt>
      <trkpt lon="-0.654961159452796" lat="38.29564983956516">
        <ele>102.0</ele>
        <time>2014-03-31T11:57:27.000Z</time>
      </trkpt>
      <trkpt lon="-0.65500826574862" lat="38.295215740799904">
        <ele>105.80000305175781</ele>
        <time>2014-03-31T11:57:33.000Z</time>
      </trkpt>
      <trkpt lon="-0.6550315674394369" lat="38.29500728286803">
        <ele>106.80000305175781</ele>
        <time>2014-03-31T11:57:36.000Z</time>
      </trkpt>
      <trkpt lon="-0.6551377661526203" lat="38.29461568035185">
        <ele>106.80000305175781</ele>
        <time>2014-03-31T11:57:42.000Z</time>
      </trkpt>
      <trkpt lon="-0.6553243473172188" lat="38.29439255408943">
        <ele>106.4000015258789</ele>
        <time>2014-03-31T11:57:46.000Z</time>
      </trkpt>
      <trkpt lon="-0.6554216612130404" lat="38.29430228099227">
        <ele>106.80000305175781</ele>
        <time>2014-03-31T11:57:48.000Z</time>
      </trkpt>
      <trkpt lon="-0.6556438654661179" lat="38.2939846906811">
        <ele>107.80000305175781</ele>
        <time>2014-03-31T11:57:54.000Z</time>
      </trkpt>
      <trkpt lon="-0.6558043789118528" lat="38.29365394078195">
        <ele>106.80000305175781</ele>
        <time>2014-03-31T11:58:01.000Z</time>
      </trkpt>
      <trkpt lon="-0.6558397505432367" lat="38.29354749061167">
        <ele>106.4000015258789</ele>
        <time>2014-03-31T11:58:03.000Z</time>
      </trkpt>
      <trkpt lon="-0.655774287879467" lat="38.29328589141369">
        <ele>105.80000305175781</ele>
        <time>2014-03-31T11:58:08.000Z</time>
      </trkpt>
      <trkpt lon="-0.6557117588818073" lat="38.29318388365209">
        <ele>106.4000015258789</ele>
        <time>2014-03-31T11:58:10.000Z</time>
      </trkpt>
      <trkpt lon="-0.6555906403809786" lat="38.29301247373223">
        <ele>105.80000305175781</ele>
        <time>2014-03-31T11:58:13.000Z</time>
      </trkpt>
      <trkpt lon="-0.6553323939442635" lat="38.29278666526079">
        <ele>105.4000015258789</ele>
        <time>2014-03-31T11:58:18.000Z</time>
      </trkpt>
      <trkpt lon="-0.6552055757492781" lat="38.29266387037933">
        <ele>106.80000305175781</ele>
        <time>2014-03-31T11:58:21.000Z</time>
      </trkpt>
      <trkpt lon="-0.6549791805446148" lat="38.29242314212024">
        <ele>108.19999694824219</ele>
        <time>2014-03-31T11:58:27.000Z</time>
      </trkpt>
      <trkpt lon="-0.6549518555402756" lat="38.29238986596465">
        <ele>108.19999694824219</ele>
        <time>2014-03-31T11:58:28.000Z</time>
      </trkpt>
      <trkpt lon="-0.6549118738621473" lat="38.29221887513995">
        <ele>106.80000305175781</ele>
        <time>2014-03-31T11:58:32.000Z</time>
      </trkpt>
      <trkpt lon="-0.6549009773880243" lat="38.291972782462835">
        <ele>105.80000305175781</ele>
        <time>2014-03-31T11:58:36.000Z</time>
      </trkpt>
      <trkpt lon="-0.6549873948097229" lat="38.29170489683747">
        <ele>106.80000305175781</ele>
        <time>2014-03-31T11:58:41.000Z</time>
      </trkpt>
      <trkpt lon="-0.6550388596951962" lat="38.29138554632664">
        <ele>106.80000305175781</ele>
        <time>2014-03-31T11:58:46.000Z</time>
      </trkpt>
      <trkpt lon="-0.6551231816411018" lat="38.29105638898909">
        <ele>105.4000015258789</ele>
        <time>2014-03-31T11:58:51.000Z</time>
      </trkpt>
      <trkpt lon="-0.6551381852477789" lat="38.29099436290562">
        <ele>105.4000015258789</ele>
        <time>2014-03-31T11:58:52.000Z</time>
      </trkpt>
      <trkpt lon="-0.6552160531282425" lat="38.29069965519011">
        <ele>105.80000305175781</ele>
        <time>2014-03-31T11:58:57.000Z</time>
      </trkpt>
      <trkpt lon="-0.6552370917052031" lat="38.29064039513469">
        <ele>105.80000305175781</ele>
        <time>2014-03-31T11:58:58.000Z</time>
      </trkpt>
      <trkpt lon="-0.6553135346621275" lat="38.2902910374105">
        <ele>107.4000015258789</ele>
        <time>2014-03-31T11:59:04.000Z</time>
      </trkpt>
      <trkpt lon="-0.655318982899189" lat="38.290128679946065">
        <ele>106.80000305175781</ele>
        <time>2014-03-31T11:59:07.000Z</time>
      </trkpt>
      <trkpt lon="-0.6552308890968561" lat="38.28977043740451">
        <ele>107.80000305175781</ele>
        <time>2014-03-31T11:59:14.000Z</time>
      </trkpt>
      <trkpt lon="-0.655133742839098" lat="38.289569690823555">
        <ele>106.4000015258789</ele>
        <time>2014-03-31T11:59:18.000Z</time>
      </trkpt>
      <trkpt lon="-0.6550174858421087" lat="38.289238438010216">
        <ele>105.80000305175781</ele>
        <time>2014-03-31T11:59:24.000Z</time>
      </trkpt>
      <trkpt lon="-0.654879854992032" lat="38.28888086602092">
        <ele>104.4000015258789</ele>
        <time>2014-03-31T11:59:31.000Z</time>
      </trkpt>
      <trkpt lon="-0.6548605766147375" lat="38.2887814566493">
        <ele>104.0</ele>
        <time>2014-03-31T11:59:33.000Z</time>
      </trkpt>
      <trkpt lon="-0.6547415535897017" lat="38.288576267659664">
        <ele>101.5999984741211</ele>
        <time>2014-03-31T11:59:38.000Z</time>
      </trkpt>
      <trkpt lon="-0.654692267999053" lat="38.28843184746802">
        <ele>105.4000015258789</ele>
        <time>2014-03-31T11:59:43.000Z</time>
      </trkpt>
      <trkpt lon="-0.6546674575656652" lat="38.28827736899257">
        <ele>100.19999694824219</ele>
        <time>2014-03-31T11:59:49.000Z</time>
      </trkpt>
      <trkpt lon="-0.6546768452972174" lat="38.288218192756176">
        <ele>100.19999694824219</ele>
        <time>2014-03-31T11:59:53.000Z</time>
      </trkpt>
      <trkpt lon="-0.6545560620725155" lat="38.288135547190905">
        <ele>99.19999694824219</ele>
        <time>2014-03-31T11:59:59.000Z</time>
      </trkpt>
      <trkpt lon="-0.6545279826968908" lat="38.28812406398356">
        <ele>100.19999694824219</ele>
        <time>2014-03-31T12:00:00.000Z</time>
      </trkpt>
      <trkpt lon="-0.6544358655810356" lat="38.287983164191246">
        <ele>100.19999694824219</ele>
        <time>2014-03-31T12:00:05.000Z</time>
      </trkpt>
      <trkpt lon="-0.6542963907122612" lat="38.287747548893094">
        <ele>101.5999984741211</ele>
        <time>2014-03-31T12:00:11.000Z</time>
      </trkpt>
      <trkpt lon="-0.6542804650962353" lat="38.287707064300776">
        <ele>102.0</ele>
        <time>2014-03-31T12:00:12.000Z</time>
      </trkpt>
      <trkpt lon="-0.6542041897773743" lat="38.28764914534986">
        <ele>103.0</ele>
        <time>2014-03-31T12:00:16.000Z</time>
      </trkpt>
      <trkpt lon="-0.6541763618588448" lat="38.28765015117824">
        <ele>102.0</ele>
        <time>2014-03-31T12:00:26.000Z</time>
      </trkpt>
      <trkpt lon="-0.6542126554995775" lat="38.287480250000954">
        <ele>100.5999984741211</ele>
        <time>2014-03-31T12:00:30.000Z</time>
      </trkpt>
      <trkpt lon="-0.6541971489787102" lat="38.287283862009645">
        <ele>100.19999694824219</ele>
        <time>2014-03-31T12:00:33.000Z</time>
      </trkpt>
      <trkpt lon="-0.6541152577847242" lat="38.28686594031751">
        <ele>101.0</ele>
        <time>2014-03-31T12:00:39.000Z</time>
      </trkpt>
      <trkpt lon="-0.654054656624794" lat="38.286406863480806">
        <ele>101.5999984741211</ele>
        <time>2014-03-31T12:00:46.000Z</time>
      </trkpt>
      <trkpt lon="-0.6540563330054283" lat="38.28608063980937">
        <ele>100.5999984741211</ele>
        <time>2014-03-31T12:00:52.000Z</time>
      </trkpt>
      <trkpt lon="-0.6540223862975836" lat="38.285779897123575">
        <ele>100.5999984741211</ele>
        <time>2014-03-31T12:00:57.000Z</time>
      </trkpt>
      <trkpt lon="-0.6540420837700367" lat="38.28549583442509">
        <ele>100.5999984741211</ele>
        <time>2014-03-31T12:01:02.000Z</time>
      </trkpt>
      <trkpt lon="-0.6541500426828861" lat="38.285268768668175">
        <ele>103.0</ele>
        <time>2014-03-31T12:01:07.000Z</time>
      </trkpt>
      <trkpt lon="-0.6541591789573431" lat="38.28522216528654">
        <ele>103.0</ele>
        <time>2014-03-31T12:01:08.000Z</time>
      </trkpt>
      <trkpt lon="-0.6541634537279606" lat="38.28499434515834">
        <ele>102.0</ele>
        <time>2014-03-31T12:01:13.000Z</time>
      </trkpt>
      <trkpt lon="-0.6541790440678596" lat="38.28473157249391">
        <ele>100.5999984741211</ele>
        <time>2014-03-31T12:01:19.000Z</time>
      </trkpt>
      <trkpt lon="-0.65413654781878" lat="38.28456058166921">
        <ele>99.19999694824219</ele>
        <time>2014-03-31T12:01:23.000Z</time>
      </trkpt>
      <trkpt lon="-0.6541198678314686" lat="38.284411299973726">
        <ele>98.5999984741211</ele>
        <time>2014-03-31T12:01:26.000Z</time>
      </trkpt>
      <trkpt lon="-0.6541058700531721" lat="38.284297389909625">
        <ele>98.19999694824219</ele>
        <time>2014-03-31T12:01:28.000Z</time>
      </trkpt>
      <trkpt lon="-0.6541136652231216" lat="38.284130757674575">
        <ele>97.19999694824219</ele>
        <time>2014-03-31T12:01:31.000Z</time>
      </trkpt>
      <trkpt lon="-0.6541355419903994" lat="38.28378835693002">
        <ele>97.80000305175781</ele>
        <time>2014-03-31T12:01:36.000Z</time>
      </trkpt>
      <trkpt lon="-0.6541358772665262" lat="38.28365709632635">
        <ele>98.19999694824219</ele>
        <time>2014-03-31T12:01:38.000Z</time>
      </trkpt>
      <trkpt lon="-0.6540563330054283" lat="38.28334369696677">
        <ele>98.19999694824219</ele>
        <time>2014-03-31T12:01:43.000Z</time>
      </trkpt>
      <trkpt lon="-0.6540883518755436" lat="38.283216040581465">
        <ele>99.19999694824219</ele>
        <time>2014-03-31T12:01:45.000Z</time>
      </trkpt>
      <trkpt lon="-0.6541307643055916" lat="38.283098358660936">
        <ele>98.19999694824219</ele>
        <time>2014-03-31T12:01:47.000Z</time>
      </trkpt>
      <trkpt lon="-0.6541737634688616" lat="38.282926781103015">
        <ele>97.80000305175781</ele>
        <time>2014-03-31T12:01:50.000Z</time>
      </trkpt>
      <trkpt lon="-0.654193377122283" lat="38.28282988630235">
        <ele>98.19999694824219</ele>
        <time>2014-03-31T12:01:52.000Z</time>
      </trkpt>
      <trkpt lon="-0.6542359571903944" lat="38.28251464292407">
        <ele>98.19999694824219</ele>
        <time>2014-03-31T12:01:59.000Z</time>
      </trkpt>
      <trkpt lon="-0.6542862486094236" lat="38.2821954600513">
        <ele>97.80000305175781</ele>
        <time>2014-03-31T12:02:06.000Z</time>
      </trkpt>
      <trkpt lon="-0.6543049402534962" lat="38.282017596066">
        <ele>97.19999694824219</ele>
        <time>2014-03-31T12:02:11.000Z</time>
      </trkpt>
      <trkpt lon="-0.6543078739196062" lat="38.281993959099054">
        <ele>97.19999694824219</ele>
        <time>2014-03-31T12:02:15.000Z</time>
      </trkpt>
      <trkpt lon="-0.6543263979256153" lat="38.28199965879321">
        <ele>97.80000305175781</ele>
        <time>2014-03-31T12:02:20.000Z</time>
      </trkpt>
      <trkpt lon="-0.6542468536645174" lat="38.281960263848305">
        <ele>92.0</ele>
        <time>2014-03-31T12:02:58.000Z</time>
      </trkpt>
      <trkpt lon="-0.6542403995990753" lat="38.28192128799856">
        <ele>92.4000015258789</ele>
        <time>2014-03-31T12:02:59.000Z</time>
      </trkpt>
      <trkpt lon="-0.654285242781043" lat="38.281742837280035">
        <ele>93.0</ele>
        <time>2014-03-31T12:03:02.000Z</time>
      </trkpt>
      <trkpt lon="-0.6543267332017422" lat="38.281521052122116">
        <ele>92.4000015258789</ele>
        <time>2014-03-31T12:03:07.000Z</time>
      </trkpt>
      <trkpt lon="-0.6543442513793707" lat="38.28144117258489">
        <ele>92.0</ele>
        <time>2014-03-31T12:03:09.000Z</time>
      </trkpt>
      <trkpt lon="-0.6543731689453125" lat="38.28118217177689">
        <ele>93.4000015258789</ele>
        <time>2014-03-31T12:03:15.000Z</time>
      </trkpt>
      <trkpt lon="-0.6544492766261101" lat="38.280932139605284">
        <ele>93.80000305175781</ele>
        <time>2014-03-31T12:03:20.000Z</time>
      </trkpt>
      <trkpt lon="-0.6544932816177607" lat="38.28068705275655">
        <ele>93.4000015258789</ele>
        <time>2014-03-31T12:03:27.000Z</time>
      </trkpt>
      <trkpt lon="-0.654499065130949" lat="38.28064455650747">
        <ele>93.4000015258789</ele>
        <time>2014-03-31T12:03:28.000Z</time>
      </trkpt>
      <trkpt lon="-0.6546035874634981" lat="38.28033518046141">
        <ele>93.4000015258789</ele>
        <time>2014-03-31T12:03:35.000Z</time>
      </trkpt>
      <trkpt lon="-0.6547083612531424" lat="38.28014248050749">
        <ele>93.80000305175781</ele>
        <time>2014-03-31T12:03:40.000Z</time>
      </trkpt>
      <trkpt lon="-0.6547398772090673" lat="38.28006327152252">
        <ele>94.4000015258789</ele>
        <time>2014-03-31T12:03:42.000Z</time>
      </trkpt>
      <trkpt lon="-0.6549112871289253" lat="38.27975255437195">
        <ele>95.80000305175781</ele>
        <time>2014-03-31T12:03:50.000Z</time>
      </trkpt>
      <trkpt lon="-0.6551238521933556" lat="38.27948743477464">
        <ele>96.19999694824219</ele>
        <time>2014-03-31T12:03:57.000Z</time>
      </trkpt>
      <trkpt lon="-0.6551959365606308" lat="38.27941275201738">
        <ele>95.80000305175781</ele>
        <time>2014-03-31T12:03:59.000Z</time>
      </trkpt>
      <trkpt lon="-0.655523082241416" lat="38.2791749574244">
        <ele>95.80000305175781</ele>
        <time>2014-03-31T12:04:06.000Z</time>
      </trkpt>
      <trkpt lon="-0.6556312926113605" lat="38.27901645563543">
        <ele>95.80000305175781</ele>
        <time>2014-03-31T12:04:10.000Z</time>
      </trkpt>
      <trkpt lon="-0.6556615512818098" lat="38.278904389590025">
        <ele>96.80000305175781</ele>
        <time>2014-03-31T12:04:13.000Z</time>
      </trkpt>
      <trkpt lon="-0.6557473819702864" lat="38.27881805598736">
        <ele>97.80000305175781</ele>
        <time>2014-03-31T12:04:19.000Z</time>
      </trkpt>
      <trkpt lon="-0.6557426881045103" lat="38.27881026081741">
        <ele>99.19999694824219</ele>
        <time>2014-03-31T12:04:23.000Z</time>
      </trkpt>
      <trkpt lon="-0.6557309534400702" lat="38.278765082359314">
        <ele>100.5999984741211</ele>
        <time>2014-03-31T12:04:28.000Z</time>
      </trkpt>
      <trkpt lon="-0.65600018016994" lat="38.27871839515865">
        <ele>101.0</ele>
        <time>2014-03-31T12:11:16.000Z</time>
      </trkpt>
      <trkpt lon="-0.6562111526727676" lat="38.27865628525615">
        <ele>100.19999694824219</ele>
        <time>2014-03-31T12:11:21.000Z</time>
      </trkpt>
      <trkpt lon="-0.6565115600824356" lat="38.27861965633929">
        <ele>100.5999984741211</ele>
        <time>2014-03-31T12:11:27.000Z</time>
      </trkpt>
      <trkpt lon="-0.6569518614560366" lat="38.27857447788119">
        <ele>103.0</ele>
        <time>2014-03-31T12:11:35.000Z</time>
      </trkpt>
      <trkpt lon="-0.6573475711047649" lat="38.278515888378024">
        <ele>103.0</ele>
        <time>2014-03-31T12:11:42.000Z</time>
      </trkpt>
      <trkpt lon="-0.6579420994967222" lat="38.278437685221434">
        <ele>103.4000015258789</ele>
        <time>2014-03-31T12:11:51.000Z</time>
      </trkpt>
      <trkpt lon="-0.6585526373237371" lat="38.27835554257035">
        <ele>105.80000305175781</ele>
        <time>2014-03-31T12:12:01.000Z</time>
      </trkpt>
      <trkpt lon="-0.6589026656001806" lat="38.27829485759139">
        <ele>105.4000015258789</ele>
        <time>2014-03-31T12:12:07.000Z</time>
      </trkpt>
      <trkpt lon="-0.6595114432275295" lat="38.278185641393065">
        <ele>105.0</ele>
        <time>2014-03-31T12:12:17.000Z</time>
      </trkpt>
      <trkpt lon="-0.6600245833396912" lat="38.27810509130359">
        <ele>104.4000015258789</ele>
        <time>2014-03-31T12:12:26.000Z</time>
      </trkpt>
      <trkpt lon="-0.6606521364301443" lat="38.27800216153264">
        <ele>103.4000015258789</ele>
        <time>2014-03-31T12:12:37.000Z</time>
      </trkpt>
      <trkpt lon="-0.6613311544060707" lat="38.27789545990527">
        <ele>103.4000015258789</ele>
        <time>2014-03-31T12:12:48.000Z</time>
      </trkpt>
      <trkpt lon="-0.6618993636220694" lat="38.27779898419976">
        <ele>102.0</ele>
        <time>2014-03-31T12:12:57.000Z</time>
      </trkpt>
      <trkpt lon="-0.6626826524734497" lat="38.277661269530654">
        <ele>100.5999984741211</ele>
        <time>2014-03-31T12:13:09.000Z</time>
      </trkpt>
      <trkpt lon="-0.6630385480821133" lat="38.27761366032064">
        <ele>100.19999694824219</ele>
        <time>2014-03-31T12:13:15.000Z</time>
      </trkpt>
      <trkpt lon="-0.6632970459759235" lat="38.27769186347723">
        <ele>100.5999984741211</ele>
        <time>2014-03-31T12:13:20.000Z</time>
      </trkpt>
      <trkpt lon="-0.6633555516600609" lat="38.277763947844505">
        <ele>100.5999984741211</ele>
        <time>2014-03-31T12:13:22.000Z</time>
      </trkpt>
      <trkpt lon="-0.6635098624974489" lat="38.27812034636736">
        <ele>100.5999984741211</ele>
        <time>2014-03-31T12:13:31.000Z</time>
      </trkpt>
      <trkpt lon="-0.6636407878249884" lat="38.27842268161476">
        <ele>100.19999694824219</ele>
        <time>2014-03-31T12:13:38.000Z</time>
      </trkpt>
      <trkpt lon="-0.6637911591678858" lat="38.278814032673836">
        <ele>100.19999694824219</ele>
        <time>2014-03-31T12:13:46.000Z</time>
      </trkpt>
      <trkpt lon="-0.6638883892446756" lat="38.27913807705045">
        <ele>100.19999694824219</ele>
        <time>2014-03-31T12:13:52.000Z</time>
      </trkpt>
      <trkpt lon="-0.6640532612800598" lat="38.27929607592523">
        <ele>99.19999694824219</ele>
        <time>2014-03-31T12:13:56.000Z</time>
      </trkpt>
      <trkpt lon="-0.6642603781074286" lat="38.27929976396263">
        <ele>100.19999694824219</ele>
        <time>2014-03-31T12:13:59.000Z</time>
      </trkpt>
      <trkpt lon="-0.664325337857008" lat="38.279284089803696">
        <ele>100.19999694824219</ele>
        <time>2014-03-31T12:14:00.000Z</time>
      </trkpt>
      <trkpt lon="-0.6651644501835108" lat="38.279041266068816">
        <ele>100.5999984741211</ele>
        <time>2014-03-31T12:14:13.000Z</time>
      </trkpt>
      <trkpt lon="-0.6654234509915113" lat="38.279091054573655">
        <ele>101.5999984741211</ele>
        <time>2014-03-31T12:14:17.000Z</time>
      </trkpt>
      <trkpt lon="-0.6655736546963453" lat="38.27920806594193">
        <ele>101.0</ele>
        <time>2014-03-31T12:14:20.000Z</time>
      </trkpt>
      <trkpt lon="-0.66599166020751" lat="38.279641745612025">
        <ele>101.5999984741211</ele>
        <time>2014-03-31T12:14:30.000Z</time>
      </trkpt>
      <trkpt lon="-0.6662879604846239" lat="38.27978457324207">
        <ele>101.5999984741211</ele>
        <time>2014-03-31T12:14:36.000Z</time>
      </trkpt>
      <trkpt lon="-0.6663908902555704" lat="38.279796140268445">
        <ele>101.0</ele>
        <time>2014-03-31T12:14:38.000Z</time>
      </trkpt>
      <trkpt lon="-0.6666992604732513" lat="38.27995388768613">
        <ele>111.19999694824219</ele>
        <time>2014-03-31T12:15:25.000Z</time>
      </trkpt>
      <trkpt lon="-0.6665744539350271" lat="38.28031715936959">
        <ele>107.4000015258789</ele>
        <time>2014-03-31T12:15:33.000Z</time>
      </trkpt>
      <trkpt lon="-0.6664408463984728" lat="38.28065109439194">
        <ele>109.19999694824219</ele>
        <time>2014-03-31T12:15:41.000Z</time>
      </trkpt>
      <trkpt lon="-0.6664061453193426" lat="38.280980084091425">
        <ele>108.80000305175781</ele>
        <time>2014-03-31T12:15:48.000Z</time>
      </trkpt>
      <trkpt lon="-0.6664379965513945" lat="38.28128384426236">
        <ele>106.80000305175781</ele>
        <time>2014-03-31T12:15:55.000Z</time>
      </trkpt>
      <trkpt lon="-0.6664978433400393" lat="38.28171517699957">
        <ele>107.80000305175781</ele>
        <time>2014-03-31T12:16:05.000Z</time>
      </trkpt>
      <trkpt lon="-0.6665701791644096" lat="38.282037461176515">
        <ele>107.4000015258789</ele>
        <time>2014-03-31T12:16:13.000Z</time>
      </trkpt>
      <trkpt lon="-0.6666296906769276" lat="38.28238723799586">
        <ele>106.4000015258789</ele>
        <time>2014-03-31T12:16:21.000Z</time>
      </trkpt>
      <trkpt lon="-0.6667312793433666" lat="38.28267188742757">
        <ele>105.4000015258789</ele>
        <time>2014-03-31T12:16:28.000Z</time>
      </trkpt>
      <trkpt lon="-0.666886679828167" lat="38.283063657581806">
        <ele>107.80000305175781</ele>
        <time>2014-03-31T12:16:37.000Z</time>
      </trkpt>
      <trkpt lon="-0.6670192815363407" lat="38.28343916684389">
        <ele>108.19999694824219</ele>
        <time>2014-03-31T12:16:45.000Z</time>
      </trkpt>
      <trkpt lon="-0.6670637894421816" lat="38.28357629477978">
        <ele>109.19999694824219</ele>
        <time>2014-03-31T12:16:48.000Z</time>
      </trkpt>
      <trkpt lon="-0.6671789567917585" lat="38.28398918733001">
        <ele>110.5999984741211</ele>
        <time>2014-03-31T12:16:57.000Z</time>
      </trkpt>
      <trkpt lon="-0.6673660408705473" lat="38.284382885321975">
        <ele>110.19999694824219</ele>
        <time>2014-03-31T12:17:06.000Z</time>
      </trkpt>
      <trkpt lon="-0.667625879868865" lat="38.284692680463195">
        <ele>110.19999694824219</ele>
        <time>2014-03-31T12:17:14.000Z</time>
      </trkpt>
      <trkpt lon="-0.6679300591349602" lat="38.28504379838705">
        <ele>110.19999694824219</ele>
        <time>2014-03-31T12:17:23.000Z</time>
      </trkpt>
      <trkpt lon="-0.6680233497172594" lat="38.28521805815399">
        <ele>111.19999694824219</ele>
        <time>2014-03-31T12:17:27.000Z</time>
      </trkpt>
      <trkpt lon="-0.6682538520544767" lat="38.285460295155644">
        <ele>111.5999984741211</ele>
        <time>2014-03-31T12:17:33.000Z</time>
      </trkpt>
      <trkpt lon="-0.6685287784785032" lat="38.285701693966985">
        <ele>115.0</ele>
        <time>2014-03-31T12:17:39.000Z</time>
      </trkpt>
      <trkpt lon="-0.6687407568097115" lat="38.28577117994428">
        <ele>114.5999984741211</ele>
        <time>2014-03-31T12:17:43.000Z</time>
      </trkpt>
      <trkpt lon="-0.668794484809041" lat="38.28575558960438">
        <ele>114.0</ele>
        <time>2014-03-31T12:17:44.000Z</time>
      </trkpt>
      <trkpt lon="-0.6692737620323896" lat="38.28553908504546">
        <ele>113.5999984741211</ele>
        <time>2014-03-31T12:17:53.000Z</time>
      </trkpt>
      <trkpt lon="-0.6697472557425499" lat="38.28529064543545">
        <ele>113.0</ele>
        <time>2014-03-31T12:18:02.000Z</time>
      </trkpt>
      <trkpt lon="-0.6701880600303411" lat="38.28506835736334">
        <ele>113.5999984741211</ele>
        <time>2014-03-31T12:18:10.000Z</time>
      </trkpt>
      <trkpt lon="-0.6706921476870775" lat="38.28481405042112">
        <ele>113.5999984741211</ele>
        <time>2014-03-31T12:18:19.000Z</time>
      </trkpt>
      <trkpt lon="-0.6711484584957361" lat="38.28460743650794">
        <ele>113.0</ele>
        <time>2014-03-31T12:18:27.000Z</time>
      </trkpt>
      <trkpt lon="-0.671594375744462" lat="38.28435723669827">
        <ele>112.5999984741211</ele>
        <time>2014-03-31T12:18:35.000Z</time>
      </trkpt>
      <trkpt lon="-0.6720554642379284" lat="38.28410209156573">
        <ele>111.5999984741211</ele>
        <time>2014-03-31T12:18:43.000Z</time>
      </trkpt>
      <trkpt lon="-0.6724764872342348" lat="38.283888855949044">
        <ele>112.19999694824219</ele>
        <time>2014-03-31T12:18:50.000Z</time>
      </trkpt>
      <trkpt lon="-0.6725320592522621" lat="38.2838567532599">
        <ele>112.19999694824219</ele>
        <time>2014-03-31T12:18:51.000Z</time>
      </trkpt>
      <trkpt lon="-0.6727035529911518" lat="38.28363304026425">
        <ele>113.0</ele>
        <time>2014-03-31T12:18:56.000Z</time>
      </trkpt>
      <trkpt lon="-0.6728879548609257" lat="38.283345540985465">
        <ele>115.4000015258789</ele>
        <time>2014-03-31T12:19:02.000Z</time>
      </trkpt>
      <trkpt lon="-0.6731536611914635" lat="38.28323825262487">
        <ele>115.4000015258789</ele>
        <time>2014-03-31T12:19:06.000Z</time>
      </trkpt>
      <trkpt lon="-0.673483069986105" lat="38.28324495814741">
        <ele>114.5999984741211</ele>
        <time>2014-03-31T12:19:10.000Z</time>
      </trkpt>
      <trkpt lon="-0.6737264804542065" lat="38.283228697255254">
        <ele>113.5999984741211</ele>
        <time>2014-03-31T12:19:13.000Z</time>
      </trkpt>
      <trkpt lon="-0.6738020852208138" lat="38.28319634310901">
        <ele>113.5999984741211</ele>
        <time>2014-03-31T12:19:14.000Z</time>
      </trkpt>
      <trkpt lon="-0.6744948495179415" lat="38.28286509029567">
        <ele>114.0</ele>
        <time>2014-03-31T12:19:24.000Z</time>
      </trkpt>
      <trkpt lon="-0.67511435598135" lat="38.2826529443264">
        <ele>116.0</ele>
        <time>2014-03-31T12:19:33.000Z</time>
      </trkpt>
      <trkpt lon="-0.6757700722664595" lat="38.282503662630916">
        <ele>117.80000305175781</ele>
        <time>2014-03-31T12:19:42.000Z</time>
      </trkpt>
      <trkpt lon="-0.6763873994350433" lat="38.28239796683192">
        <ele>116.4000015258789</ele>
        <time>2014-03-31T12:19:50.000Z</time>
      </trkpt>
      <trkpt lon="-0.677101369947195" lat="38.28232068568468">
        <ele>114.5999984741211</ele>
        <time>2014-03-31T12:19:59.000Z</time>
      </trkpt>
      <trkpt lon="-0.6778178550302982" lat="38.28224977478385">
        <ele>114.0</ele>
        <time>2014-03-31T12:20:08.000Z</time>
      </trkpt>
      <trkpt lon="-0.6786015629768372" lat="38.28220786526799">
        <ele>113.5999984741211</ele>
        <time>2014-03-31T12:20:18.000Z</time>
      </trkpt>
      <trkpt lon="-0.679381750524044" lat="38.28220375813544">
        <ele>112.5999984741211</ele>
        <time>2014-03-31T12:20:28.000Z</time>
      </trkpt>
      <trkpt lon="-0.6801481917500496" lat="38.28225505538285">
        <ele>114.0</ele>
        <time>2014-03-31T12:20:38.000Z</time>
      </trkpt>
      <trkpt lon="-0.6807662732899189" lat="38.28232705593109">
        <ele>114.5999984741211</ele>
        <time>2014-03-31T12:20:46.000Z</time>
      </trkpt>
      <trkpt lon="-0.6812346540391445" lat="38.28233535401523">
        <ele>113.5999984741211</ele>
        <time>2014-03-31T12:20:52.000Z</time>
      </trkpt>
      <trkpt lon="-0.681541683152318" lat="38.28235597349703">
        <ele>112.5999984741211</ele>
        <time>2014-03-31T12:20:56.000Z</time>
      </trkpt>
      <trkpt lon="-0.6818211358040571" lat="38.282321859151125">
        <ele>114.0</ele>
        <time>2014-03-31T12:21:00.000Z</time>
      </trkpt>
      <trkpt lon="-0.6819701660424471" lat="38.28223619610071">
        <ele>113.5999984741211</ele>
        <time>2014-03-31T12:21:03.000Z</time>
      </trkpt>
      <trkpt lon="-0.6822934560477734" lat="38.28202798962593">
        <ele>112.19999694824219</ele>
        <time>2014-03-31T12:21:09.000Z</time>
      </trkpt>
      <trkpt lon="-0.6823462620377541" lat="38.28196135349572">
        <ele>112.5999984741211</ele>
        <time>2014-03-31T12:21:12.000Z</time>
      </trkpt>
      <trkpt lon="-0.6823421549052" lat="38.28198289498687">
        <ele>114.5999984741211</ele>
        <time>2014-03-31T12:21:17.000Z</time>
      </trkpt>
      <trkpt lon="-0.6823184341192245" lat="38.28197317197919">
        <ele>111.19999694824219</ele>
        <time>2014-03-31T12:21:29.000Z</time>
      </trkpt>
      <trkpt lon="-0.6824862398207188" lat="38.28200896270573">
        <ele>111.19999694824219</ele>
        <time>2014-03-31T12:21:34.000Z</time>
      </trkpt>
      <trkpt lon="-0.682592187076807" lat="38.282053051516414">
        <ele>108.80000305175781</ele>
        <time>2014-03-31T12:21:38.000Z</time>
      </trkpt>
      <trkpt lon="-0.6826311629265547" lat="38.282056991010904">
        <ele>106.80000305175781</ele>
        <time>2014-03-31T12:21:43.000Z</time>
      </trkpt>
      <trkpt lon="-0.6827072706073523" lat="38.28204056248069">
        <ele>106.4000015258789</ele>
        <time>2014-03-31T12:21:47.000Z</time>
      </trkpt>
      <trkpt lon="-0.6827547959983349" lat="38.28185976482928">
        <ele>108.80000305175781</ele>
        <time>2014-03-31T12:21:53.000Z</time>
      </trkpt>
      <trkpt lon="-0.6829171534627676" lat="38.281598668545485">
        <ele>110.5999984741211</ele>
        <time>2014-03-31T12:21:59.000Z</time>
      </trkpt>
      <trkpt lon="-0.6829819455742836" lat="38.28156924806535">
        <ele>110.19999694824219</ele>
        <time>2014-03-31T12:22:00.000Z</time>
      </trkpt>
      <trkpt lon="-0.6832790840417147" lat="38.28134436160326">
        <ele>111.19999694824219</ele>
        <time>2014-03-31T12:22:05.000Z</time>
      </trkpt>
      <trkpt lon="-0.683552585542202" lat="38.28108586370945">
        <ele>111.19999694824219</ele>
        <time>2014-03-31T12:22:10.000Z</time>
      </trkpt>
      <trkpt lon="-0.6838543340563774" lat="38.280770452693105">
        <ele>111.19999694824219</ele>
        <time>2014-03-31T12:22:16.000Z</time>
      </trkpt>
      <trkpt lon="-0.6842155940830708" lat="38.28043844550848">
        <ele>111.19999694824219</ele>
        <time>2014-03-31T12:22:23.000Z</time>
      </trkpt>
      <trkpt lon="-0.6842849962413311" lat="38.28022797591984">
        <ele>111.19999694824219</ele>
        <time>2014-03-31T12:22:27.000Z</time>
      </trkpt>
      <trkpt lon="-0.6843077950179577" lat="38.28005975112319">
        <ele>111.19999694824219</ele>
        <time>2014-03-31T12:22:30.000Z</time>
      </trkpt>
      <trkpt lon="-0.6842514686286449" lat="38.27990669757128">
        <ele>110.19999694824219</ele>
        <time>2014-03-31T12:22:33.000Z</time>
      </trkpt>
      <trkpt lon="-0.6842186953872442" lat="38.27979588881135">
        <ele>109.80000305175781</ele>
        <time>2014-03-31T12:22:36.000Z</time>
      </trkpt>
      <trkpt lon="-0.6840682402253151" lat="38.27972707338631">
        <ele>109.80000305175781</ele>
        <time>2014-03-31T12:22:40.000Z</time>
      </trkpt>
      <trkpt lon="-0.6837711855769157" lat="38.27975196763873">
        <ele>112.5999984741211</ele>
        <time>2014-03-31T12:22:46.000Z</time>
      </trkpt>
      <trkpt lon="-0.6835719477385283" lat="38.27980955131352">
        <ele>115.0</ele>
        <time>2014-03-31T12:22:50.000Z</time>
      </trkpt>
      <trkpt lon="-0.6832195725291967" lat="38.27984215691686">
        <ele>124.5999984741211</ele>
        <time>2014-03-31T12:22:58.000Z</time>
      </trkpt>
      <trkpt lon="-0.6831448897719383" lat="38.27983838506043">
        <ele>128.0</ele>
        <time>2014-03-31T12:23:02.000Z</time>
      </trkpt>
      <trkpt lon="-0.6831039860844612" lat="38.27980125322938">
        <ele>134.1999969482422</ele>
        <time>2014-03-31T12:23:08.000Z</time>
      </trkpt>
    </trkseg>
  </trk>
</gpx>
